Etusivu
METAR-TAF:

METAR-TAF

Lentoasemat :

Vigo, Espanja

Leveyspiiri: 42-13N, Pituuspiiri: 008-38W, korkeus merenpinnasta: 264 m

Tämänhetkinen sää

Tämä raportti tehtiin 21 minuuttia sitten, kello 17.00 UTC
Tuuli 11 kn lännestä
Lämpötila 23°C
Kosteus 73%
Ilmanpaine 1017 hPa
Näkyvyys 10 km tai enemmän
ei pilviä alle 1500 m:ssä eikä cumulonimbus-pilviä

METAR: LEVX 181700Z 26011KT CAVOK 23/18 Q1017 NOSIG

Aika: 19:21 (17:21 UTC)

Sääennuste

Tämä raportti tehtiin 6 tuntia ja 21 minuuttia sitten, kello 11.00 UTC
Ennuste voimassa 18. päivästä klo 12 UTC - 19. päivään klo 12 UTC
Tuuli 9 kn pohjoisesta
Näkyvyys 10 km tai enemmän
ei pilviä alle 1500 m:ssä eikä cumulonimbus-pilviä
Ajoittain
18. päivästä klo 12 UTC - 18. päivään klo 18 UTC
Tuuli 10 kn lännestä/luoteesta
Tulossa
19. päivästä klo 10 UTC - 19. päivään klo 12 UTC
Tuuli 10 kn lännestä

TAF: LEVX 181100Z 1812/1912 36009KT CAVOK TX27/1815Z TN15/1906Z TEMPO 1812/1818 29010KT BECMG 1910/1912 27010KT

Säähavainnot ja -ennusteet yli 4000 lentoasemalta (METAR- ja TAF-raportit).

Käytössä olevat sääasemat on merkitty karttaan keltaisilla ja punaisilla pisteillä.

Aseta hiiri pisteen päälle nähdäksesi sääaseman nimen.

Klikkaa sitten nähdäksesi säähavainnot ja -ennusteet.

Kartan vaihtaminen: klikkaa mustalla rastilla varustettuja vihreitä pisteitä, niin voit zoomata sisään; viivalla varustettua vihreää pistettä, niin voit zoomata ulos tai vihreitä nuolia, niin pääset viereisille kartoille.


METAR-TAF: